sensor_id;sensor_type;location;lat;lon;timestamp;pressure;altitude;pressure_sealevel;temperature;humidity
75414;BME280;64758;52.122;5.404;2022-12-20T00:00:58;101524.31;;;9.68;88.73
75414;BME280;64758;52.122;5.404;2022-12-20T00:03:24;101522.31;;;9.70;89.51
75414;BME280;64758;52.122;5.404;2022-12-20T00:05:51;101525.28;;;9.67;88.56
75414;BME280;64758;52.122;5.404;2022-12-20T00:08:17;101512.84;;;9.68;88.57
75414;BME280;64758;52.122;5.404;2022-12-20T00:10:44;101515.34;;;9.69;89.07
75414;BME280;64758;52.122;5.404;2022-12-20T00:13:11;101512.84;;;9.68;89.08
75414;BME280;64758;52.122;5.404;2022-12-20T00:15:38;101515.19;;;9.79;88.35
75414;BME280;64758;52.122;5.404;2022-12-20T00:18:05;101512.19;;;9.82;89.17
75414;BME280;64758;52.122;5.404;2022-12-20T00:20:32;101509.41;;;9.83;88.73
75414;BME280;64758;52.122;5.404;2022-12-20T00:22:58;101514.53;;;9.85;88.68
75414;BME280;64758;52.122;5.404;2022-12-20T00:25:25;101524.47;;;9.91;88.21
75414;BME280;64758;52.122;5.404;2022-12-20T00:27:51;101513.38;;;9.95;87.88
75414;BME280;64758;52.122;5.404;2022-12-20T00:30:18;101500.13;;;9.95;87.00
75414;BME280;64758;52.122;5.404;2022-12-20T00:32:45;101515.06;;;10.04;87.22
75414;BME280;64758;52.122;5.404;2022-12-20T00:35:12;101521.19;;;10.05;86.98
75414;BME280;64758;52.122;5.404;2022-12-20T00:37:38;101511.91;;;10.09;86.95
75414;BME280;64758;52.122;5.404;2022-12-20T00:40:05;101503.28;;;10.07;87.02
75414;BME280;64758;52.122;5.404;2022-12-20T00:42:32;101508.25;;;10.10;86.43
75414;BME280;64758;52.122;5.404;2022-12-20T00:44:59;101511.09;;;10.08;86.51
75414;BME280;64758;52.122;5.404;2022-12-20T00:47:25;101506.59;;;10.09;86.81
75414;BME280;64758;52.122;5.404;2022-12-20T00:49:52;101499.16;;;10.12;86.22
75414;BME280;64758;52.122;5.404;2022-12-20T00:52:18;101504.94;;;10.15;85.86
75414;BME280;64758;52.122;5.404;2022-12-20T00:54:45;101506.78;;;10.15;86.27
75414;BME280;64758;52.122;5.404;2022-12-20T00:57:11;101505.59;;;10.17;85.53
75414;BME280;64758;52.122;5.404;2022-12-20T00:59:37;101499.78;;;10.22;86.30
75414;BME280;64758;52.122;5.404;2022-12-20T01:02:04;101492.31;;;10.25;86.41
75414;BME280;64758;52.122;5.404;2022-12-20T01:04:31;101498.78;;;10.23;86.39
75414;BME280;64758;52.122;5.404;2022-12-20T01:06:57;101503.28;;;10.22;85.69
75414;BME280;64758;52.122;5.404;2022-12-20T01:09:24;101499.94;;;10.28;85.54
75414;BME280;64758;52.122;5.404;2022-12-20T01:11:50;101504.06;;;10.31;86.45
75414;BME280;64758;52.122;5.404;2022-12-20T01:14:17;101497.94;;;10.30;86.19
75414;BME280;64758;52.122;5.404;2022-12-20T01:16:45;101507.06;;;10.28;86.41
75414;BME280;64758;52.122;5.404;2022-12-20T01:19:14;101505.75;;;10.24;86.98
75414;BME280;64758;52.122;5.404;2022-12-20T01:21:41;101507.09;;;10.20;88.21
75414;BME280;64758;52.122;5.404;2022-12-20T01:24:15;101502.28;;;10.15;88.57
75414;BME280;64758;52.122;5.404;2022-12-20T01:26:43;101512.91;;;10.15;89.67
75414;BME280;64758;52.122;5.404;2022-12-20T01:29:10;101515.06;;;10.12;90.30
75414;BME280;64758;52.122;5.404;2022-12-20T01:31:36;101498.81;;;10.07;90.50
75414;BME280;64758;52.122;5.404;2022-12-20T01:34:03;101507.25;;;10.03;92.88
75414;BME280;64758;52.122;5.404;2022-12-20T01:36:32;101507.41;;;9.93;94.25
75414;BME280;64758;52.122;5.404;2022-12-20T01:39:02;101502.91;;;9.86;94.89
75414;BME280;64758;52.122;5.404;2022-12-20T01:41:30;101493.13;;;9.78;95.54
75414;BME280;64758;52.122;5.404;2022-12-20T01:46:30;101499.75;;;9.66;98.10
75414;BME280;64758;52.122;5.404;2022-12-20T01:49:05;101500.56;;;9.59;98.28
75414;BME280;64758;52.122;5.404;2022-12-20T01:51:40;101489.94;;;9.51;99.10
75414;BME280;64758;52.122;5.404;2022-12-20T01:54:33;101488.59;;;9.47;99.47
75414;BME280;64758;52.122;5.404;2022-12-20T01:57:03;101493.41;;;9.43;100.00
75414;BME280;64758;52.122;5.404;2022-12-20T01:59:32;101481.81;;;9.36;100.00
75414;BME280;64758;52.122;5.404;2022-12-20T02:02:04;101476.84;;;9.33;100.00
75414;BME280;64758;52.122;5.404;2022-12-20T02:04:33;101485.78;;;9.32;100.00
75414;BME280;64758;52.122;5.404;2022-12-20T02:06:59;101473.16;;;9.26;100.00
75414;BME280;64758;52.122;5.404;2022-12-20T02:09:28;101471.50;;;9.25;100.00
75414;BME280;64758;52.122;5.404;2022-12-20T02:20:49;101462.38;;;9.20;100.00
75414;BME280;64758;52.122;5.404;2022-12-20T02:31:23;101459.41;;;9.23;100.00
75414;BME280;64758;52.122;5.404;2022-12-20T02:33:51;101456.25;;;9.19;100.00
75414;BME280;64758;52.122;5.404;2022-12-20T02:36:18;101454.75;;;9.17;100.00
75414;BME280;64758;52.122;5.404;2022-12-20T02:38:45;101454.25;;;9.13;100.00
75414;BME280;64758;52.122;5.404;2022-12-20T02:41:28;101453.09;;;9.16;100.00
75414;BME280;64758;52.122;5.404;2022-12-20T02:44:10;101438.19;;;9.15;100.00
75414;BME280;64758;52.122;5.404;2022-12-20T02:46:57;101435.53;;;9.15;100.00
75414;BME280;64758;52.122;5.404;2022-12-20T02:49:29;101435.53;;;9.15;100.00
75414;BME280;64758;52.122;5.404;2022-12-20T02:51:58;101437.19;;;9.16;100.00
75414;BME280;64758;52.122;5.404;2022-12-20T02:54:27;101435.53;;;9.15;100.00
75414;BME280;64758;52.122;5.404;2022-12-20T02:57:18;101439.84;;;9.16;100.00
75414;BME280;64758;52.122;5.404;2022-12-20T02:59:52;101432.06;;;9.14;100.00
75414;BME280;64758;52.122;5.404;2022-12-20T03:02:22;101428.25;;;9.17;100.00
75414;BME280;64758;52.122;5.404;2022-12-20T03:04:50;101434.53;;;9.16;100.00
75414;BME280;64758;52.122;5.404;2022-12-20T03:07:17;101442.47;;;9.16;100.00
75414;BME280;64758;52.122;5.404;2022-12-20T03:09:44;101435.53;;;9.15;100.00
75414;BME280;64758;52.122;5.404;2022-12-20T03:12:12;101421.59;;;9.13;100.00
75414;BME280;64758;52.122;5.404;2022-12-20T03:14:39;101423.25;;;9.14;100.00
75414;BME280;64758;52.122;5.404;2022-12-20T03:17:06;101436.19;;;9.17;100.00
75414;BME280;64758;52.122;5.404;2022-12-20T03:19:34;101444.00;;;9.18;100.00
75414;BME280;64758;52.122;5.404;2022-12-20T03:22:00;101428.91;;;9.19;100.00
75414;BME280;64758;52.122;5.404;2022-12-20T03:24:27;101427.25;;;9.18;100.00
75414;BME280;64758;52.122;5.404;2022-12-20T03:26:53;101415.66;;;9.19;100.00
75414;BME280;64758;52.122;5.404;2022-12-20T03:29:20;101419.97;;;9.20;100.00
75414;BME280;64758;52.122;5.404;2022-12-20T03:31:46;101422.28;;;9.23;100.00
75414;BME280;64758;52.122;5.404;2022-12-20T03:34:13;101406.25;;;9.24;100.00
75414;BME280;64758;52.122;5.404;2022-12-20T03:36:40;101418.31;;;9.27;100.00
75414;BME280;64758;52.122;5.404;2022-12-20T03:39:07;101427.13;;;9.27;100.00
75414;BME280;64758;52.122;5.404;2022-12-20T03:41:33;101421.97;;;9.34;100.00
75414;BME280;64758;52.122;5.404;2022-12-20T03:44:00;101421.16;;;9.33;100.00
75414;BME280;64758;52.122;5.404;2022-12-20T03:46:26;101409.38;;;9.36;100.00
75414;BME280;64758;52.122;5.404;2022-12-20T03:48:53;101405.41;;;9.32;100.00
75414;BME280;64758;52.122;5.404;2022-12-20T03:51:20;101407.25;;;9.31;100.00
75414;BME280;64758;52.122;5.404;2022-12-20T03:53:46;101409.38;;;9.36;100.00
75414;BME280;64758;52.122;5.404;2022-12-20T03:56:13;101413.22;;;9.41;100.00
75414;BME280;64758;52.122;5.404;2022-12-20T03:58:39;101397.13;;;9.43;100.00
75414;BME280;64758;52.122;5.404;2022-12-20T04:01:23;101405.75;;;9.45;100.00
75414;BME280;64758;52.122;5.404;2022-12-20T04:03:50;101402.09;;;9.46;100.00
75414;BME280;64758;52.122;5.404;2022-12-20T04:06:17;101394.00;;;9.47;100.00
75414;BME280;64758;52.122;5.404;2022-12-20T04:08:44;101390.84;;;9.52;100.00
75414;BME280;64758;52.122;5.404;2022-12-20T04:11:11;101391.16;;;9.57;100.00
75414;BME280;64758;52.122;5.404;2022-12-20T04:13:49;101371.94;;;9.55;100.00
75414;BME280;64758;52.122;5.404;2022-12-20T04:16:18;101383.88;;;9.59;100.00
75414;BME280;64758;52.122;5.404;2022-12-20T04:18:45;101393.47;;;9.60;100.00
75414;BME280;64758;52.122;5.404;2022-12-20T04:21:12;101380.06;;;9.61;100.00
75414;BME280;64758;52.122;5.404;2022-12-20T04:23:40;101379.75;;;9.64;100.00
75414;BME280;64758;52.122;5.404;2022-12-20T04:26:08;101369.63;;;9.68;100.00
75414;BME280;64758;52.122;5.404;2022-12-20T04:28:35;101374.25;;;9.74;100.00
75414;BME280;64758;52.122;5.404;2022-12-20T04:31:02;101368.47;;;9.78;100.00
75414;BME280;64758;52.122;5.404;2022-12-20T04:33:29;101369.13;;;9.80;100.00
75414;BME280;64758;52.122;5.404;2022-12-20T04:35:56;101364.63;;;9.81;100.00
75414;BME280;64758;52.122;5.404;2022-12-20T04:38:23;101360.47;;;9.86;100.00
75414;BME280;64758;52.122;5.404;2022-12-20T04:40:51;101365.28;;;9.91;99.87
75414;BME280;64758;52.122;5.404;2022-12-20T04:43:18;101369.56;;;9.92;99.59
75414;BME280;64758;52.122;5.404;2022-12-20T04:45:50;101370.09;;;9.95;99.53
75414;BME280;64758;52.122;5.404;2022-12-20T04:48:18;101371.75;;;10.04;99.02
75414;BME280;64758;52.122;5.404;2022-12-20T04:51:05;101373.41;;;10.05;99.57
75414;BME280;64758;52.122;5.404;2022-12-20T04:53:32;101372.56;;;10.05;99.25
75414;BME280;64758;52.122;5.404;2022-12-20T04:56:15;101374.53;;;10.11;99.99
75414;BME280;64758;52.122;5.404;2022-12-20T04:58:43;101369.41;;;10.09;100.00
75414;BME280;64758;52.122;5.404;2022-12-20T05:01:10;101366.13;;;10.07;100.00
75414;BME280;64758;52.122;5.404;2022-12-20T05:03:36;101358.94;;;10.00;100.00
75414;BME280;64758;52.122;5.404;2022-12-20T05:06:03;101361.28;;;9.95;100.00
75414;BME280;64758;52.122;5.404;2022-12-20T05:08:30;101365.28;;;9.91;100.00
75414;BME280;64758;52.122;5.404;2022-12-20T05:10:56;101362.94;;;9.88;100.00
75414;BME280;64758;52.122;5.404;2022-12-20T05:13:23;101354.19;;;9.87;100.00
75414;BME280;64758;52.122;5.404;2022-12-20T05:15:51;101351.88;;;9.84;100.00
75414;BME280;64758;52.122;5.404;2022-12-20T05:18:18;101347.38;;;9.85;100.00
75414;BME280;64758;52.122;5.404;2022-12-20T05:20:46;101340.06;;;9.87;100.00
75414;BME280;64758;52.122;5.404;2022-12-20T05:23:12;101345.88;;;9.90;100.00
75414;BME280;64758;52.122;5.404;2022-12-20T05:25:58;101336.41;;;9.88;100.00
75414;BME280;64758;52.122;5.404;2022-12-20T05:28:42;101349.88;;;9.86;100.00
75414;BME280;64758;52.122;5.404;2022-12-20T05:31:10;101324.00;;;9.88;100.00
75414;BME280;64758;52.122;5.404;2022-12-20T05:33:36;101327.47;;;9.89;100.00
75414;BME280;64758;52.122;5.404;2022-12-20T05:36:03;101324.34;;;9.85;100.00
75414;BME280;64758;52.122;5.404;2022-12-20T05:38:29;101335.59;;;9.87;100.00
75414;BME280;64758;52.122;5.404;2022-12-20T05:40:56;101324.00;;;9.88;100.00
75414;BME280;64758;52.122;5.404;2022-12-20T05:43:22;101322.34;;;9.87;100.00
75414;BME280;64758;52.122;5.404;2022-12-20T05:45:51;101326.47;;;9.90;100.00
75414;BME280;64758;52.122;5.404;2022-12-20T05:48:19;101318.69;;;9.88;100.00
75414;BME280;64758;52.122;5.404;2022-12-20T05:50:46;101314.84;;;9.91;100.00
75414;BME280;64758;52.122;5.404;2022-12-20T05:53:14;101317.50;;;9.91;100.00
75414;BME280;64758;52.122;5.404;2022-12-20T05:55:48;101315.19;;;9.96;100.00
75414;BME280;64758;52.122;5.404;2022-12-20T05:58:15;101301.75;;;9.97;100.00
75414;BME280;64758;52.122;5.404;2022-12-20T06:00:43;101300.91;;;9.97;100.00
75414;BME280;64758;52.122;5.404;2022-12-20T06:03:10;101286.81;;;9.96;100.00
75414;BME280;64758;52.122;5.404;2022-12-20T06:05:44;101296.44;;;9.97;100.00
75414;BME280;64758;52.122;5.404;2022-12-20T06:08:12;101278.03;;;9.96;100.00
75414;BME280;64758;52.122;5.404;2022-12-20T06:10:39;101268.59;;;9.93;100.00
75414;BME280;64758;52.122;5.404;2022-12-20T06:13:08;101262.09;;;9.96;100.00
75414;BME280;64758;52.122;5.404;2022-12-20T06:15:35;101264.59;;;9.97;100.00
75414;BME280;64758;52.122;5.404;2022-12-20T06:18:02;101272.91;;;10.02;100.00
75414;BME280;64758;52.122;5.404;2022-12-20T06:20:29;101276.88;;;10.06;100.00
75414;BME280;64758;52.122;5.404;2022-12-20T06:22:55;101275.34;;;10.12;100.00
75414;BME280;64758;52.122;5.404;2022-12-20T06:25:22;101272.53;;;10.13;100.00
75414;BME280;64758;52.122;5.404;2022-12-20T06:27:48;101283.16;;;10.13;100.00
75414;BME280;64758;52.122;5.404;2022-12-20T06:30:15;101282.16;;;10.14;100.00
75414;BME280;64758;52.122;5.404;2022-12-20T06:32:42;101285.09;;;10.19;100.00
75414;BME280;64758;52.122;5.404;2022-12-20T06:35:09;101281.63;;;10.18;100.00
75414;BME280;64758;52.122;5.404;2022-12-20T06:37:36;101291.69;;;10.23;100.00
75414;BME280;64758;52.122;5.404;2022-12-20T06:40:03;101297.00;;;10.23;100.00
75414;BME280;64758;52.122;5.404;2022-12-20T06:42:30;101278.28;;;10.24;100.00
75414;BME280;64758;52.122;5.404;2022-12-20T06:44:57;101282.56;;;10.25;100.00
75414;BME280;64758;52.122;5.404;2022-12-20T06:47:23;101275.78;;;10.23;100.00
75414;BME280;64758;52.122;5.404;2022-12-20T06:49:50;101287.22;;;10.23;100.00
75414;BME280;64758;52.122;5.404;2022-12-20T06:52:16;101275.13;;;10.21;100.00
75414;BME280;64758;52.122;5.404;2022-12-20T06:54:43;101271.31;;;10.23;100.00
75414;BME280;64758;52.122;5.404;2022-12-20T06:57:09;101271.31;;;10.23;100.00
75414;BME280;64758;52.122;5.404;2022-12-20T06:59:36;101281.91;;;10.23;100.00
75414;BME280;64758;52.122;5.404;2022-12-20T07:02:03;101294.84;;;10.26;99.34
75414;BME280;64758;52.122;5.404;2022-12-20T07:04:30;101280.72;;;10.26;99.38
75414;BME280;64758;52.122;5.404;2022-12-20T07:06:57;101279.22;;;10.31;98.87
75414;BME280;64758;52.122;5.404;2022-12-20T07:09:23;101274.91;;;10.30;98.42
75414;BME280;64758;52.122;5.404;2022-12-20T07:11:50;101274.56;;;10.33;97.82
75414;BME280;64758;52.122;5.404;2022-12-20T07:14:17;101286.50;;;10.37;97.53
75414;BME280;64758;52.122;5.404;2022-12-20T07:16:43;101281.84;;;10.39;97.98
75414;BME280;64758;52.122;5.404;2022-12-20T07:19:11;101292.13;;;10.42;97.12
75414;BME280;64758;52.122;5.404;2022-12-20T07:21:38;101292.59;;;10.46;96.99
75414;BME280;64758;52.122;5.404;2022-12-20T07:24:05;101286.09;;;10.48;96.58
75414;BME280;64758;52.122;5.404;2022-12-20T07:26:32;101275.50;;;10.48;96.66
75414;BME280;64758;52.122;5.404;2022-12-20T07:28:59;101280.91;;;10.55;96.11
75414;BME280;64758;52.122;5.404;2022-12-20T07:31:25;101284.22;;;10.57;95.54
75414;BME280;64758;52.122;5.404;2022-12-20T07:33:52;101279.06;;;10.63;94.48
75414;BME280;64758;52.122;5.404;2022-12-20T07:36:18;101273.75;;;10.63;94.78
75414;BME280;64758;52.122;5.404;2022-12-20T07:38:45;101273.25;;;10.60;94.25
75414;BME280;64758;52.122;5.404;2022-12-20T07:41:14;101277.22;;;10.64;93.65
75414;BME280;64758;52.122;5.404;2022-12-20T07:43:42;101284.47;;;10.70;93.91
75414;BME280;64758;52.122;5.404;2022-12-20T07:46:09;101287.31;;;10.68;93.71
75414;BME280;64758;52.122;5.404;2022-12-20T07:48:38;101278.50;;;10.68;94.12
75414;BME280;64758;52.122;5.404;2022-12-20T07:51:07;101299.75;;;10.68;94.31
75414;BME280;64758;52.122;5.404;2022-12-20T07:53:38;101279.88;;;10.64;94.91
75414;BME280;64758;52.122;5.404;2022-12-20T07:56:07;101301.47;;;10.61;95.80
75414;BME280;64758;52.122;5.404;2022-12-20T07:58:36;101290.38;;;10.57;96.21
75414;BME280;64758;52.122;5.404;2022-12-20T08:01:06;101291.19;;;10.58;96.20
75414;BME280;64758;52.122;5.404;2022-12-20T08:03:40;101296.38;;;10.51;96.95
75414;BME280;64758;52.122;5.404;2022-12-20T08:06:08;101300.69;;;10.52;96.04
75414;BME280;64758;52.122;5.404;2022-12-20T08:08:37;101294.88;;;10.49;97.36
75414;BME280;64758;52.122;5.404;2022-12-20T08:11:07;101299.53;;;10.47;96.82
75414;BME280;64758;52.122;5.404;2022-12-20T08:13:36;101289.94;;;10.46;97.07
75414;BME280;64758;52.122;5.404;2022-12-20T08:16:11;101281.31;;;10.44;96.56
75414;BME280;64758;52.122;5.404;2022-12-20T08:18:38;101285.47;;;10.46;97.50
75414;BME280;64758;52.122;5.404;2022-12-20T08:21:04;101285.47;;;10.46;96.87
75414;BME280;64758;52.122;5.404;2022-12-20T08:23:31;101288.94;;;10.47;97.07
75414;BME280;64758;52.122;5.404;2022-12-20T08:26:00;101287.28;;;10.46;96.76
75414;BME280;64758;52.122;5.404;2022-12-20T08:28:26;101292.44;;;10.47;95.94
75414;BME280;64758;52.122;5.404;2022-12-20T08:30:59;101285.75;;;10.51;96.38
75414;BME280;64758;52.122;5.404;2022-12-20T08:33:26;101292.06;;;10.50;96.31
75414;BME280;64758;52.122;5.404;2022-12-20T08:35:57;101282.25;;;10.51;95.82
75414;BME280;64758;52.122;5.404;2022-12-20T08:38:26;101280.59;;;10.50;95.58
75414;BME280;64758;52.122;5.404;2022-12-20T08:40:52;101288.56;;;10.50;95.56
75414;BME280;64758;52.122;5.404;2022-12-20T08:43:19;101278.78;;;10.50;96.20
75414;BME280;64758;52.122;5.404;2022-12-20T08:45:53;101283.09;;;10.51;95.49
75414;BME280;64758;52.122;5.404;2022-12-20T08:48:21;101280.44;;;10.51;94.81
75414;BME280;64758;52.122;5.404;2022-12-20T08:50:53;101278.78;;;10.50;95.82
75414;BME280;64758;52.122;5.404;2022-12-20T08:53:21;101279.44;;;10.52;94.85
75414;BME280;64758;52.122;5.404;2022-12-20T08:55:47;101286.41;;;10.53;95.20
75414;BME280;64758;52.122;5.404;2022-12-20T08:58:14;101276.94;;;10.51;96.04
75414;BME280;64758;52.122;5.404;2022-12-20T09:00:41;101296.09;;;10.46;96.63
75414;BME280;64758;52.122;5.404;2022-12-20T09:03:08;101285.97;;;10.42;98.17
75414;BME280;64758;52.122;5.404;2022-12-20T09:05:43;101280.53;;;10.35;98.54
75414;BME280;64758;52.122;5.404;2022-12-20T09:08:10;101298.81;;;10.30;99.63
75414;BME280;64758;52.122;5.404;2022-12-20T09:10:36;101286.88;;;10.26;100.00
75414;BME280;64758;52.122;5.404;2022-12-20T09:13:03;101274.31;;;10.20;100.00
75414;BME280;64758;52.122;5.404;2022-12-20T09:15:29;101284.28;;;10.18;100.00
75414;BME280;64758;52.122;5.404;2022-12-20T09:17:57;101287.09;;;10.17;100.00
75414;BME280;64758;52.122;5.404;2022-12-20T09:20:25;101297.22;;;10.13;100.00
75414;BME280;64758;52.122;5.404;2022-12-20T09:22:52;101282.50;;;10.11;100.00
75414;BME280;64758;52.122;5.404;2022-12-20T09:25:19;101286.97;;;10.11;100.00
75414;BME280;64758;52.122;5.404;2022-12-20T09:27:45;101287.81;;;10.11;100.00
75414;BME280;64758;52.122;5.404;2022-12-20T09:30:12;101281.00;;;10.09;100.00
75414;BME280;64758;52.122;5.404;2022-12-20T09:32:38;101282.66;;;10.10;100.00
75414;BME280;64758;52.122;5.404;2022-12-20T09:35:05;101283.84;;;10.07;100.00
75414;BME280;64758;52.122;5.404;2022-12-20T09:37:32;101288.81;;;10.02;100.00
75414;BME280;64758;52.122;5.404;2022-12-20T09:39:58;101283.69;;;10.01;100.00
75414;BME280;64758;52.122;5.404;2022-12-20T09:42:26;101277.03;;;9.97;100.00
75414;BME280;64758;52.122;5.404;2022-12-20T09:45:06;101290.13;;;9.98;100.00
75414;BME280;64758;52.122;5.404;2022-12-20T09:47:34;101298.44;;;9.95;100.00
75414;BME280;64758;52.122;5.404;2022-12-20T09:50:03;101306.88;;;9.99;100.00
75414;BME280;64758;52.122;5.404;2022-12-20T09:55:46;101299.25;;;9.96;100.00
75414;BME280;64758;52.122;5.404;2022-12-20T09:58:47;101303.91;;;9.94;100.00
75414;BME280;64758;52.122;5.404;2022-12-20T10:01:20;101296.28;;;9.91;100.00
75414;BME280;64758;52.122;5.404;2022-12-20T10:03:53;101305.56;;;9.87;100.00
75414;BME280;64758;52.122;5.404;2022-12-20T10:09:29;101288.00;;;9.86;100.00
75414;BME280;64758;52.122;5.404;2022-12-20T10:12:23;101294.97;;;9.87;100.00
75414;BME280;64758;52.122;5.404;2022-12-20T10:15:18;101293.97;;;9.88;100.00
75414;BME280;64758;52.122;5.404;2022-12-20T10:20:51;101298.28;;;9.89;100.00
75414;BME280;64758;52.122;5.404;2022-12-20T10:23:29;101285.84;;;9.89;100.00
75414;BME280;64758;52.122;5.404;2022-12-20T10:25:59;101278.38;;;9.93;100.00
75414;BME280;64758;52.122;5.404;2022-12-20T10:28:30;101285.97;;;9.96;100.00
75414;BME280;64758;52.122;5.404;2022-12-20T10:31:01;101285.16;;;9.95;100.00
75414;BME280;64758;52.122;5.404;2022-12-20T10:33:29;101281.34;;;9.98;100.00
75414;BME280;64758;52.122;5.404;2022-12-20T10:36:28;101276.56;;;10.01;100.00
75414;BME280;64758;52.122;5.404;2022-12-20T10:38:58;101271.38;;;10.00;100.00
75414;BME280;64758;52.122;5.404;2022-12-20T10:41:46;101272.72;;;10.04;100.00
75414;BME280;64758;52.122;5.404;2022-12-20T10:44:28;101268.59;;;10.01;100.00
75414;BME280;64758;52.122;5.404;2022-12-20T10:46:58;101279.88;;;10.03;100.00
75414;BME280;64758;52.122;5.404;2022-12-20T10:49:33;101267.91;;;9.99;100.00
75414;BME280;64758;52.122;5.404;2022-12-20T10:52:11;101269.25;;;10.03;100.00
75414;BME280;64758;52.122;5.404;2022-12-20T10:54:39;101267.59;;;10.02;100.00
75414;BME280;64758;52.122;5.404;2022-12-20T10:57:25;101258.63;;;10.03;100.00
75414;BME280;64758;52.122;5.404;2022-12-20T10:59:55;101258.63;;;10.03;100.00
75414;BME280;64758;52.122;5.404;2022-12-20T11:02:26;101245.84;;;10.07;100.00
75414;BME280;64758;52.122;5.404;2022-12-20T11:05:17;101250.50;;;10.05;100.00
75414;BME280;64758;52.122;5.404;2022-12-20T11:07:58;101243.38;;;10.05;100.00
75414;BME280;64758;52.122;5.404;2022-12-20T11:10:45;101251.00;;;10.08;100.00
75414;BME280;64758;52.122;5.404;2022-12-20T11:13:23;101243.38;;;10.05;100.00
75414;BME280;64758;52.122;5.404;2022-12-20T11:15:53;101244.38;;;10.04;100.00
75414;BME280;64758;52.122;5.404;2022-12-20T11:23:42;101241.84;;;10.11;100.00
75414;BME280;64758;52.122;5.404;2022-12-20T11:29:17;101240.03;;;10.11;100.00
75414;BME280;64758;52.122;5.404;2022-12-20T11:35:06;101234.72;;;10.11;100.00
75414;BME280;64758;52.122;5.404;2022-12-20T11:37:53;101235.84;;;10.16;100.00
75414;BME280;64758;52.122;5.404;2022-12-20T11:40:32;101231.38;;;10.17;100.00
75414;BME280;64758;52.122;5.404;2022-12-20T11:54:07;101211.94;;;10.16;100.00
75414;BME280;64758;52.122;5.404;2022-12-20T11:56:39;101232.19;;;10.17;100.00
75414;BME280;64758;52.122;5.404;2022-12-20T11:59:46;101225.06;;;10.18;100.00
75414;BME280;64758;52.122;5.404;2022-12-20T12:02:25;101225.88;;;10.18;100.00
75414;BME280;64758;52.122;5.404;2022-12-20T12:04:57;101231.19;;;10.18;100.00
75414;BME280;64758;52.122;5.404;2022-12-20T12:07:30;101227.88;;;10.16;100.00
75414;BME280;64758;52.122;5.404;2022-12-20T12:10:02;101216.44;;;10.16;100.00
75414;BME280;64758;52.122;5.404;2022-12-20T12:12:36;101220.75;;;10.17;100.00
75414;BME280;64758;52.122;5.404;2022-12-20T12:15:39;101225.53;;;10.21;100.00
75414;BME280;64758;52.122;5.404;2022-12-20T12:18:19;101224.53;;;10.22;100.00
75414;BME280;64758;52.122;5.404;2022-12-20T12:20:51;101214.91;;;10.21;100.00
75414;BME280;64758;52.122;5.404;2022-12-20T12:23:23;101211.72;;;10.26;100.00
75414;BME280;64758;52.122;5.404;2022-12-20T12:25:52;101199.44;;;10.25;100.00
75414;BME280;64758;52.122;5.404;2022-12-20T12:28:19;101191.31;;;10.26;100.00
75414;BME280;64758;52.122;5.404;2022-12-20T12:30:53;101199.94;;;10.28;100.00
75414;BME280;64758;52.122;5.404;2022-12-20T12:33:27;101199.94;;;10.28;100.00
75414;BME280;64758;52.122;5.404;2022-12-20T12:46:58;101204.25;;;10.29;100.00
75414;BME280;64758;52.122;5.404;2022-12-20T12:49:29;101214.66;;;10.31;100.00
75414;BME280;64758;52.122;5.404;2022-12-20T12:51:58;101212.19;;;10.29;100.00
75414;BME280;64758;52.122;5.404;2022-12-20T12:54:39;101212.19;;;10.29;100.00
75414;BME280;64758;52.122;5.404;2022-12-20T12:57:24;101211.84;;;10.32;100.00
75414;BME280;64758;52.122;5.404;2022-12-20T12:59:51;101219.81;;;10.32;100.00
75414;BME280;64758;52.122;5.404;2022-12-20T13:02:23;101212.00;;;10.31;100.00
75414;BME280;64758;52.122;5.404;2022-12-20T13:12:55;101214.50;;;10.32;100.00
75414;BME280;64758;52.122;5.404;2022-12-20T13:17:53;101210.19;;;10.31;100.00
75414;BME280;64758;52.122;5.404;2022-12-20T13:25:36;101204.88;;;10.31;100.00
75414;BME280;64758;52.122;5.404;2022-12-20T13:30:45;101200.56;;;10.30;100.00
75414;BME280;64758;52.122;5.404;2022-12-20T13:33:21;101202.38;;;10.30;100.00
75414;BME280;64758;52.122;5.404;2022-12-20T13:49:26;101205.53;;;10.33;100.00
75414;BME280;64758;52.122;5.404;2022-12-20T13:54:47;101204.53;;;10.34;100.00
75414;BME280;64758;52.122;5.404;2022-12-20T13:57:17;101193.25;;;10.32;100.00
75414;BME280;64758;52.122;5.404;2022-12-20T13:59:46;101199.56;;;10.31;100.00
75414;BME280;64758;52.122;5.404;2022-12-20T14:02:23;101203.22;;;10.30;100.00
75414;BME280;64758;52.122;5.404;2022-12-20T14:04:58;101211.00;;;10.32;100.00
75414;BME280;64758;52.122;5.404;2022-12-20T14:07:27;101207.69;;;10.30;100.00
75414;BME280;64758;52.122;5.404;2022-12-20T14:09:58;101203.22;;;10.30;100.00
75414;BME280;64758;52.122;5.404;2022-12-20T14:12:26;101204.88;;;10.31;100.00
75414;BME280;64758;52.122;5.404;2022-12-20T14:15:02;101204.88;;;10.31;100.00
75414;BME280;64758;52.122;5.404;2022-12-20T14:17:30;101203.03;;;10.32;100.00
75414;BME280;64758;52.122;5.404;2022-12-20T14:22:57;101200.38;;;10.32;100.00
75414;BME280;64758;52.122;5.404;2022-12-20T14:25:37;101203.88;;;10.32;100.00
75414;BME280;64758;52.122;5.404;2022-12-20T14:30:54;101211.66;;;10.34;100.00
75414;BME280;64758;52.122;5.404;2022-12-20T14:33:28;101209.34;;;10.31;100.00
75414;BME280;64758;52.122;5.404;2022-12-20T14:35:55;101211.84;;;10.32;100.00
75414;BME280;64758;52.122;5.404;2022-12-20T14:38:27;101219.81;;;10.32;100.00
75414;BME280;64758;52.122;5.404;2022-12-20T14:40:54;101216.31;;;10.32;100.00
75414;BME280;64758;52.122;5.404;2022-12-20T14:43:41;101211.00;;;10.32;100.00
75414;BME280;64758;52.122;5.404;2022-12-20T14:46:15;101199.56;;;10.31;100.00